createdAt,value
2017-11-28T00:00:54.355Z,6.50
2017-11-28T00:03:21.943Z,8.37
2017-11-28T00:05:50.450Z,10.43
2017-11-28T00:08:18.002Z,19.47
2017-11-28T00:10:45.509Z,6.50
2017-11-28T00:13:13.283Z,7.93
2017-11-28T00:15:40.825Z,5.80
2017-11-28T00:18:09.402Z,7.87
2017-11-28T00:20:37.010Z,6.10
2017-11-28T00:23:05.318Z,6.60
2017-11-28T00:25:32.916Z,8.10
2017-11-28T00:28:00.516Z,9.33
2017-11-28T00:30:28.092Z,6.47
2017-11-28T00:32:57.520Z,8.23
2017-11-28T00:35:25.165Z,8.70
2017-11-28T00:37:52.795Z,10.10
2017-11-28T00:40:20.398Z,9.90
2017-11-28T00:42:48.144Z,8.53
2017-11-28T00:45:15.693Z,7.23
2017-11-28T00:47:43.330Z,7.50
2017-11-28T00:50:11.696Z,10.93
2017-11-28T00:52:40.071Z,6.00
2017-11-28T00:55:08.478Z,7.70
2017-11-28T00:57:36.041Z,10.97
2017-11-28T01:00:03.701Z,4.60
2017-11-28T01:02:31.242Z,5.20
2017-11-28T01:04:59.551Z,4.57
2017-11-28T01:07:27.152Z,9.17
2017-11-28T01:09:54.736Z,6.50
2017-11-28T01:12:23.496Z,3.50
2017-11-28T01:14:51.041Z,3.63
2017-11-28T01:17:18.701Z,2.97
2017-11-28T01:19:46.314Z,5.37
2017-11-28T01:22:13.863Z,2.30
2017-11-28T01:24:41.451Z,4.53
2017-11-28T01:27:09.050Z,10.60
2017-11-28T01:29:37.254Z,3.60
2017-11-28T01:32:04.852Z,3.63
2017-11-28T01:34:32.454Z,3.30
2017-11-28T01:36:59.973Z,3.83
2017-11-28T01:39:27.632Z,4.37
2017-11-28T01:41:55.236Z,3.20
2017-11-28T01:44:23.258Z,5.73
2017-11-28T01:46:50.877Z,5.47
2017-11-28T01:49:18.468Z,4.83
2017-11-28T01:51:46.052Z,4.80
2017-11-28T01:54:13.714Z,6.10
2017-11-28T01:56:41.292Z,5.07
2017-11-28T01:59:08.836Z,4.60
2017-11-28T02:01:36.375Z,4.20
2017-11-28T02:04:04.720Z,4.37
2017-11-28T02:06:37.318Z,3.93
2017-11-28T02:09:05.695Z,5.40
2017-11-28T02:11:33.244Z,7.57
2017-11-28T02:14:00.875Z,4.00
2017-11-28T02:16:28.481Z,3.77
2017-11-28T02:18:56.052Z,4.33
2017-11-28T02:21:24.072Z,7.63
2017-11-28T02:23:51.664Z,6.97
2017-11-28T02:26:19.237Z,5.17
2017-11-28T02:28:47.739Z,3.90
2017-11-28T02:31:15.343Z,3.20
2017-11-28T02:33:42.901Z,5.27
2017-11-28T02:36:10.629Z,3.70
2017-11-28T02:38:38.196Z,3.20
2017-11-28T02:41:10.702Z,3.17
2017-11-28T02:43:39.751Z,4.90
2017-11-28T02:46:10.816Z,2.57
2017-11-28T02:48:38.387Z,2.70
2017-11-28T02:51:11.645Z,2.07
2017-11-28T02:53:39.260Z,2.17
2017-11-28T02:56:09.631Z,2.07
2017-11-28T02:58:44.851Z,5.83
2017-11-28T03:01:19.812Z,2.30
2017-11-28T03:03:47.396Z,3.60
2017-11-28T03:06:14.948Z,3.63
2017-11-28T03:08:42.575Z,2.23
2017-11-28T03:11:10.124Z,2.53
2017-11-28T03:13:42.260Z,2.97
2017-11-28T03:16:12.805Z,1.87
2017-11-28T03:18:42.034Z,2.67
2017-11-28T03:21:15.464Z,2.97
2017-11-28T03:26:42.830Z,3.30
2017-11-28T03:29:17.049Z,5.07
2017-11-28T03:31:44.634Z,5.27
2017-11-28T03:34:16.987Z,3.43
2017-11-28T03:36:44.611Z,2.50
2017-11-28T03:39:12.740Z,2.97
2017-11-28T03:41:40.297Z,2.73
2017-11-28T03:44:17.806Z,2.93
2017-11-28T03:46:45.396Z,2.70
2017-11-28T03:49:12.925Z,4.07
2017-11-28T03:51:40.484Z,4.03
2017-11-28T03:54:08.045Z,2.80
2017-11-28T03:56:36.379Z,3.97
2017-11-28T03:59:04.756Z,2.80
2017-11-28T04:01:32.298Z,3.30
2017-11-28T04:04:00.320Z,6.10
2017-11-28T04:06:27.902Z,4.17
2017-11-28T04:08:55.503Z,3.90
2017-11-28T04:11:23.037Z,4.93
2017-11-28T04:13:51.316Z,4.90
2017-11-28T04:16:19.009Z,5.60
2017-11-28T04:18:46.554Z,4.40
2017-11-28T04:21:14.666Z,4.73
2017-11-28T04:23:42.286Z,6.70
2017-11-28T04:26:09.875Z,3.00
2017-11-28T04:28:37.417Z,4.50
2017-11-28T04:31:04.947Z,2.40
2017-11-28T04:33:32.887Z,4.60
2017-11-28T04:36:00.409Z,2.93
2017-11-28T04:38:28.741Z,4.43
2017-11-28T04:40:56.320Z,3.10
2017-11-28T04:43:25.353Z,5.20
2017-11-28T04:45:53.216Z,4.30
2017-11-28T04:48:21.068Z,2.17
2017-11-28T04:50:48.608Z,4.50
2017-11-28T04:53:17.413Z,2.87
2017-11-28T04:55:44.949Z,2.30
2017-11-28T04:58:12.451Z,2.60
2017-11-28T05:00:40.029Z,7.23
2017-11-28T05:03:09.083Z,4.27
2017-11-28T05:05:36.706Z,1.97
2017-11-28T05:08:04.272Z,3.10
2017-11-28T05:10:32.604Z,3.23
2017-11-28T05:13:00.157Z,3.77
2017-11-28T05:15:27.815Z,3.47
2017-11-28T05:17:55.404Z,3.00
2017-11-28T05:20:22.919Z,5.80
2017-11-28T05:22:50.557Z,3.10
2017-11-28T05:25:18.094Z,11.53
2017-11-28T05:27:45.907Z,4.80
2017-11-28T05:30:14.341Z,3.93
2017-11-28T05:32:44.221Z,6.00
2017-11-28T05:35:11.756Z,5.50
2017-11-28T05:37:40.031Z,4.40
2017-11-28T05:40:07.807Z,11.93
2017-11-28T05:42:35.342Z,5.50
2017-11-28T05:45:03.162Z,4.40
2017-11-28T05:47:30.711Z,6.27
2017-11-28T05:49:59.036Z,9.60
2017-11-28T05:52:27.250Z,7.13
2017-11-28T05:54:55.701Z,6.93
2017-11-28T05:57:24.009Z,6.43
2017-11-28T05:59:51.740Z,11.50
2017-11-28T06:02:20.705Z,13.80
2017-11-28T06:04:48.221Z,11.40
2017-11-28T06:07:16.609Z,9.40
2017-11-28T06:09:45.094Z,28.97
2017-11-28T06:12:12.644Z,11.57
2017-11-28T06:14:40.228Z,7.87
2017-11-28T06:17:07.756Z,11.30
2017-11-28T06:19:36.000Z,19.30
2017-11-28T06:22:03.629Z,10.50
2017-11-28T06:24:31.156Z,8.57
2017-11-28T06:26:58.761Z,9.30
2017-11-28T06:29:26.332Z,20.67
2017-11-28T06:31:53.914Z,10.87
2017-11-28T06:34:22.253Z,8.93
2017-11-28T06:36:49.906Z,14.73
2017-11-28T06:39:18.252Z,11.40
2017-11-28T06:41:45.819Z,19.27
2017-11-28T06:44:14.049Z,8.37
2017-11-28T06:46:43.468Z,7.43
2017-11-28T06:49:11.054Z,12.00
2017-11-28T06:51:38.634Z,10.10
2017-11-28T06:54:06.221Z,6.10
2017-11-28T06:56:33.783Z,9.33
2017-11-28T06:59:01.320Z,4.80
2017-11-28T07:01:29.109Z,11.60
2017-11-28T07:03:58.576Z,8.07
2017-11-28T07:06:26.275Z,13.37
2017-11-28T07:08:53.785Z,8.93
2017-11-28T07:11:21.571Z,15.23
2017-11-28T07:13:49.241Z,17.17
2017-11-28T07:16:16.835Z,13.60
2017-11-28T07:18:44.379Z,16.07
2017-11-28T07:21:11.953Z,10.43
2017-11-28T07:23:39.692Z,7.37
2017-11-28T07:26:07.359Z,15.37
2017-11-28T07:28:34.964Z,16.63
2017-11-28T07:31:02.539Z,18.63
2017-11-28T07:33:30.127Z,23.80
2017-11-28T07:35:57.721Z,16.80
2017-11-28T07:38:25.332Z,12.00
2017-11-28T07:40:52.904Z,15.97
2017-11-28T07:43:20.506Z,141.93
2017-11-28T07:45:48.061Z,64.40
2017-11-28T07:48:15.678Z,27.97
2017-11-28T07:50:43.246Z,19.77
2017-11-28T07:53:10.779Z,26.93
2017-11-28T07:55:38.469Z,19.77
2017-11-28T07:58:06.028Z,22.30
2017-11-28T08:00:33.657Z,71.43
2017-11-28T08:03:01.322Z,123.30
2017-11-28T08:05:28.910Z,56.30
2017-11-28T08:07:56.519Z,48.53
2017-11-28T08:10:24.103Z,26.50
2017-11-28T08:12:51.636Z,17.23
2017-11-28T08:15:19.922Z,8.40
2017-11-28T08:17:48.328Z,8.47
2017-11-28T08:20:15.902Z,23.47
2017-11-28T08:22:43.520Z,17.33
2017-11-28T08:25:11.077Z,56.70
2017-11-28T08:27:39.421Z,91.97
2017-11-28T08:30:07.193Z,90.20
2017-11-28T08:32:34.711Z,46.80
2017-11-28T08:35:03.174Z,30.27
2017-11-28T08:37:30.780Z,18.23
2017-11-28T08:39:58.410Z,12.90
2017-11-28T08:42:25.987Z,9.40
2017-11-28T08:44:53.538Z,10.03
2017-11-28T08:47:21.089Z,14.80
2017-11-28T08:49:48.662Z,22.60
2017-11-28T08:52:16.272Z,12.27
2017-11-28T08:54:44.644Z,16.80
2017-11-28T08:57:12.200Z,9.70
2017-11-28T08:59:40.697Z,12.00
2017-11-28T09:02:08.295Z,8.37
2017-11-28T09:04:35.836Z,11.77
2017-11-28T09:07:03.374Z,15.63
2017-11-28T09:09:32.300Z,12.73
2017-11-28T09:11:59.840Z,13.07
2017-11-28T09:14:27.657Z,14.83
2017-11-28T09:16:55.741Z,10.10
2017-11-28T09:19:23.339Z,10.40
2017-11-28T09:21:50.890Z,11.37
2017-11-28T09:24:18.550Z,9.80
2017-11-28T09:26:47.003Z,11.10
2017-11-28T09:29:14.568Z,10.00
2017-11-28T09:31:42.983Z,8.87
2017-11-28T09:34:11.348Z,11.90
2017-11-28T09:36:39.750Z,14.33
2017-11-28T09:39:07.284Z,6.33
2017-11-28T09:41:35.612Z,6.40
2017-11-28T09:44:03.209Z,8.67
2017-11-28T09:46:30.799Z,18.40
2017-11-28T09:48:58.507Z,30.70
2017-11-28T09:51:26.080Z,19.80
2017-11-28T09:53:53.638Z,18.80
2017-11-28T09:56:24.068Z,21.47
2017-11-28T09:58:51.761Z,20.63
2017-11-28T10:01:19.531Z,10.30
2017-11-28T10:03:47.120Z,12.27
2017-11-28T10:06:14.679Z,16.30
2017-11-28T10:08:42.296Z,14.70
2017-11-28T10:11:09.933Z,18.20
2017-11-28T10:13:37.552Z,12.20
2017-11-28T10:16:05.111Z,24.20
2017-11-28T10:18:32.725Z,20.37
2017-11-28T10:21:01.683Z,15.50
2017-11-28T10:23:29.248Z,13.70
2017-11-28T10:25:56.797Z,27.80
2017-11-28T10:28:24.983Z,26.40
2017-11-28T10:30:54.133Z,47.17
2017-11-28T10:33:22.553Z,13.43
2017-11-28T10:35:50.102Z,16.70
2017-11-28T10:38:17.658Z,19.40
2017-11-28T10:40:45.936Z,8.63
2017-11-28T10:43:13.456Z,25.57
2017-11-28T10:45:41.760Z,9.93
2017-11-28T10:48:09.362Z,13.27
2017-11-28T10:50:36.961Z,11.43
2017-11-28T10:53:04.683Z,10.70
2017-11-28T10:55:32.285Z,24.80
2017-11-28T10:58:02.516Z,14.43
2017-11-28T11:00:30.059Z,19.00
2017-11-28T11:02:58.419Z,48.53
2017-11-28T11:05:26.001Z,26.77
2017-11-28T11:07:54.145Z,17.97
2017-11-28T11:10:22.144Z,23.53
2017-11-28T11:12:49.748Z,84.03
2017-11-28T11:15:18.233Z,100.97
2017-11-28T11:17:45.839Z,72.23
2017-11-28T11:20:14.255Z,41.80
2017-11-28T11:22:41.828Z,18.83
2017-11-28T11:25:10.126Z,14.37
2017-11-28T11:27:37.761Z,17.80
2017-11-28T11:30:05.428Z,22.60
2017-11-28T11:32:32.965Z,8.73
2017-11-28T11:35:00.542Z,9.17
2017-11-28T11:37:28.744Z,7.17
2017-11-28T11:39:56.337Z,9.67
2017-11-28T11:42:23.973Z,8.40
2017-11-28T11:44:51.529Z,14.13
2017-11-28T11:47:19.065Z,12.97
2017-11-28T11:49:46.575Z,9.60
2017-11-28T11:52:14.187Z,18.93
2017-11-28T11:54:41.813Z,11.20
2017-11-28T11:57:09.360Z,20.33
2017-11-28T11:59:36.893Z,11.80
2017-11-28T12:02:04.511Z,19.40
2017-11-28T12:04:32.487Z,13.83
2017-11-28T12:07:00.052Z,13.90
2017-11-28T12:09:27.647Z,8.20
2017-11-28T12:11:55.890Z,12.40
2017-11-28T12:14:24.689Z,10.50
2017-11-28T12:16:52.229Z,14.70
2017-11-28T12:19:19.847Z,10.70
2017-11-28T12:21:47.618Z,7.40
2017-11-28T12:24:15.200Z,8.20
2017-11-28T12:26:43.574Z,17.03
2017-11-28T12:29:13.453Z,13.27
2017-11-28T12:31:41.119Z,12.67
2017-11-28T12:34:10.554Z,17.43
2017-11-28T12:36:38.721Z,12.50
2017-11-28T12:39:07.045Z,13.67
2017-11-28T12:41:34.617Z,10.73
2017-11-28T12:44:02.841Z,12.10
2017-11-28T12:46:31.729Z,8.70
2017-11-28T12:48:59.387Z,9.33
2017-11-28T12:51:27.692Z,11.70
2017-11-28T12:53:56.005Z,10.03
2017-11-28T12:56:23.579Z,6.23
2017-11-28T12:58:51.170Z,11.10
2017-11-28T13:01:19.566Z,8.80
2017-11-28T13:03:48.056Z,14.73
2017-11-28T13:06:15.649Z,14.07
2017-11-28T13:08:44.879Z,11.60
2017-11-28T13:11:13.159Z,14.10
2017-11-28T13:13:41.523Z,7.60
2017-11-28T13:16:09.126Z,10.53
2017-11-28T13:18:36.717Z,9.47
2017-11-28T13:21:04.289Z,13.00
2017-11-28T13:23:31.826Z,16.33
2017-11-28T13:25:59.359Z,11.97
2017-11-28T13:28:26.901Z,20.90
2017-11-28T13:30:55.236Z,12.90
2017-11-28T13:33:24.383Z,11.47
2017-11-28T13:35:53.024Z,8.10
2017-11-28T13:38:20.653Z,14.83
2017-11-28T13:40:49.182Z,11.57
2017-11-28T13:43:19.265Z,31.83
2017-11-28T13:45:46.816Z,14.13
2017-11-28T13:48:16.248Z,17.93
2017-11-28T13:50:44.422Z,16.57
2017-11-28T13:53:12.074Z,15.63
2017-11-28T13:55:39.646Z,21.93
2017-11-28T13:58:07.204Z,11.20
2017-11-28T14:00:34.867Z,9.80
2017-11-28T14:03:03.638Z,11.57
2017-11-28T14:05:31.298Z,11.50
2017-11-28T14:08:00.689Z,12.97
2017-11-28T14:10:29.613Z,14.03
2017-11-28T14:12:57.423Z,12.30
2017-11-28T14:15:25.771Z,10.87
2017-11-28T14:17:53.423Z,18.63
2017-11-28T14:20:26.876Z,19.33
2017-11-28T14:23:00.173Z,17.10
2017-11-28T14:25:45.051Z,12.17
2017-11-28T14:28:27.518Z,20.47
2017-11-28T14:31:00.557Z,8.93
2017-11-28T14:33:31.663Z,14.93
2017-11-28T14:36:15.701Z,16.33
2017-11-28T14:38:48.904Z,14.00
2017-11-28T14:41:17.268Z,22.30
2017-11-28T14:43:44.889Z,17.60
2017-11-28T14:46:13.937Z,19.73
2017-11-28T14:48:42.365Z,10.17
2017-11-28T14:51:15.741Z,10.83
2017-11-28T14:53:49.340Z,11.70
2017-11-28T14:56:16.972Z,39.93
2017-11-28T14:59:00.245Z,16.27
2017-11-28T15:01:27.836Z,9.83
2017-11-28T15:03:57.685Z,20.80
2017-11-28T15:06:43.949Z,20.37
2017-11-28T15:12:19.093Z,17.60
2017-11-28T15:14:52.150Z,21.40
2017-11-28T15:17:25.482Z,16.27
2017-11-28T15:19:55.810Z,14.43
2017-11-28T15:25:23.572Z,21.10
2017-11-28T15:27:52.081Z,13.80
2017-11-28T15:30:22.878Z,19.43
2017-11-28T15:32:50.593Z,14.83
2017-11-28T15:35:18.250Z,18.90
2017-11-28T15:37:47.080Z,18.23
2017-11-28T15:40:14.774Z,16.60
2017-11-28T15:42:44.482Z,12.47
2017-11-28T15:45:12.334Z,10.90
2017-11-28T15:47:39.917Z,11.27
2017-11-28T15:50:09.000Z,12.97
2017-11-28T15:52:36.998Z,15.60
2017-11-28T15:55:04.672Z,13.43
2017-11-28T15:57:34.042Z,12.67
2017-11-28T16:00:01.932Z,17.50
2017-11-28T16:02:29.530Z,16.40
2017-11-28T16:04:57.740Z,13.13
2017-11-28T16:07:25.430Z,13.40
2017-11-28T16:09:55.438Z,13.20
2017-11-28T16:12:25.004Z,10.00
2017-11-28T16:14:53.048Z,11.73
2017-11-28T16:17:20.736Z,16.90
2017-11-28T16:19:48.429Z,13.33
2017-11-28T16:22:16.978Z,13.13
2017-11-28T16:24:44.696Z,11.87
2017-11-28T16:27:13.892Z,17.37
2017-11-28T16:29:42.376Z,12.73
2017-11-28T16:32:09.991Z,13.90
2017-11-28T16:34:37.606Z,16.40
2017-11-28T16:37:05.211Z,13.73
2017-11-28T16:39:32.995Z,17.07
2017-11-28T16:42:01.868Z,11.13
2017-11-28T16:44:29.528Z,16.07
2017-11-28T16:46:59.076Z,11.50
2017-11-28T16:49:27.333Z,20.87
2017-11-28T16:51:54.978Z,17.07
2017-11-28T16:54:22.584Z,17.67
2017-11-28T16:56:50.727Z,19.00
2017-11-28T16:59:18.982Z,17.10
2017-11-28T17:01:49.550Z,23.17
2017-11-28T17:04:17.328Z,22.33
2017-11-28T17:06:45.701Z,20.23
2017-11-28T17:09:13.420Z,19.10
2017-11-28T17:11:42.736Z,16.43
2017-11-28T17:14:12.162Z,17.47
2017-11-28T17:16:40.418Z,16.00
2017-11-28T17:19:08.069Z,15.60
2017-11-28T17:21:35.848Z,18.80
2017-11-28T17:24:03.484Z,13.60
2017-11-28T17:26:31.598Z,22.33
2017-11-28T17:28:59.234Z,15.30
2017-11-28T17:31:26.848Z,16.50
2017-11-28T17:33:55.362Z,13.93
2017-11-28T17:36:24.814Z,13.20
2017-11-28T17:38:53.077Z,13.20
2017-11-28T17:41:22.252Z,19.60
2017-11-28T17:43:50.196Z,13.47
2017-11-28T17:46:18.286Z,17.70
2017-11-28T17:48:46.705Z,17.43
2017-11-28T17:51:14.428Z,15.37
2017-11-28T17:53:43.309Z,18.13
2017-11-28T17:56:12.148Z,26.03
2017-11-28T17:58:40.046Z,13.93
2017-11-28T18:01:09.824Z,17.93
2017-11-28T18:03:38.413Z,13.77
2017-11-28T18:06:06.097Z,17.53
2017-11-28T18:08:33.986Z,14.57
2017-11-28T18:11:01.718Z,16.57
2017-11-28T18:13:29.621Z,20.23
2017-11-28T18:15:57.187Z,14.87
2017-11-28T18:18:26.395Z,15.70
2017-11-28T18:20:55.044Z,17.40
2017-11-28T18:23:24.706Z,17.47
2017-11-28T18:25:53.146Z,17.50
2017-11-28T18:28:22.436Z,21.77
2017-11-28T18:30:50.873Z,20.20
2017-11-28T18:33:18.673Z,16.23
2017-11-28T18:35:46.495Z,18.60
2017-11-28T18:38:14.245Z,18.67
2017-11-28T18:40:41.893Z,20.73
2017-11-28T18:43:10.102Z,16.13
2017-11-28T18:45:38.338Z,17.90
2017-11-28T18:48:07.132Z,15.47
2017-11-28T18:50:35.856Z,25.40
2017-11-28T18:53:03.654Z,16.30
2017-11-28T18:55:32.059Z,19.10
2017-11-28T18:57:59.667Z,15.70
2017-11-28T19:00:28.765Z,19.00
2017-11-28T19:02:56.483Z,17.03
2017-11-28T19:05:25.047Z,18.63
2017-11-28T19:07:53.427Z,19.77
2017-11-28T19:10:23.004Z,19.27
2017-11-28T19:12:52.318Z,18.03
2017-11-28T19:15:20.129Z,18.50
2017-11-28T19:17:49.749Z,19.17
2017-11-28T19:20:17.476Z,18.50
2017-11-28T19:22:46.486Z,19.90
2017-11-28T19:25:14.201Z,17.57
2017-11-28T19:27:41.795Z,19.00
2017-11-28T19:30:11.214Z,22.47
2017-11-28T19:32:39.048Z,22.37
2017-11-28T19:35:08.787Z,21.60
2017-11-28T19:37:36.754Z,26.83
2017-11-28T19:40:05.222Z,22.00
2017-11-28T19:42:32.855Z,21.53
2017-11-28T19:45:01.422Z,22.83
2017-11-28T19:47:29.670Z,24.03
2017-11-28T19:49:57.634Z,19.67
2017-11-28T19:52:25.802Z,23.03
2017-11-28T19:54:53.381Z,18.63
2017-11-28T19:57:20.986Z,20.67
2017-11-28T19:59:50.371Z,20.77
2017-11-28T20:02:18.498Z,22.90
2017-11-28T20:04:46.057Z,23.77
2017-11-28T20:07:14.620Z,19.17
2017-11-28T20:09:42.346Z,20.57
2017-11-28T20:12:10.243Z,20.23
2017-11-28T20:14:37.808Z,18.43
2017-11-28T20:17:06.651Z,16.27
2017-11-28T20:19:34.516Z,19.57
2017-11-28T20:22:02.096Z,16.27
2017-11-28T20:24:29.894Z,18.93
2017-11-28T20:26:57.493Z,25.27
2017-11-28T20:29:25.120Z,17.80
2017-11-28T20:31:52.836Z,18.10
2017-11-28T20:34:20.494Z,20.87
2017-11-28T20:36:48.144Z,16.17
2017-11-28T20:39:16.435Z,17.40
2017-11-28T20:41:44.672Z,19.30
2017-11-28T20:44:12.582Z,21.30
2017-11-28T20:46:40.537Z,20.20
2017-11-28T20:49:28.850Z,21.03
2017-11-28T20:51:57.371Z,17.27
2017-11-28T20:54:25.451Z,23.03
2017-11-28T20:56:53.584Z,17.90
2017-11-28T20:59:22.780Z,18.73
2017-11-28T21:01:51.861Z,18.30
2017-11-28T21:04:19.713Z,18.20
2017-11-28T21:06:47.301Z,16.70
2017-11-28T21:09:14.867Z,18.80
2017-11-28T21:11:42.547Z,18.50
2017-11-28T21:14:10.120Z,17.20
2017-11-28T21:16:37.702Z,18.37
2017-11-28T21:19:05.861Z,18.53
2017-11-28T21:21:34.235Z,17.83
2017-11-28T21:24:01.847Z,17.37
2017-11-28T21:26:31.234Z,15.27
2017-11-28T21:28:59.563Z,24.13
2017-11-28T21:31:27.179Z,21.87
2017-11-28T21:33:55.440Z,16.17
2017-11-28T21:36:23.230Z,17.57
2017-11-28T21:38:50.779Z,18.60
2017-11-28T21:41:18.400Z,16.10
2017-11-28T21:43:46.250Z,17.30
2017-11-28T21:46:13.800Z,16.30
2017-11-28T21:48:41.587Z,22.77
2017-11-28T21:51:09.428Z,16.67
2017-11-28T21:53:37.792Z,12.90
2017-11-28T21:56:06.233Z,17.63
2017-11-28T21:58:34.797Z,19.10
2017-11-28T22:01:03.716Z,14.20
2017-11-28T22:03:32.317Z,14.33
2017-11-28T22:05:59.929Z,14.47
2017-11-28T22:08:27.521Z,19.50
2017-11-28T22:10:55.158Z,17.50
2017-11-28T22:13:22.746Z,15.07
2017-11-28T22:15:50.424Z,18.30
2017-11-28T22:18:18.037Z,16.13
2017-11-28T22:20:46.140Z,16.40
2017-11-28T22:23:16.177Z,20.80
2017-11-28T22:25:44.572Z,14.90
2017-11-28T22:28:13.052Z,16.07
2017-11-28T22:30:41.411Z,12.97
2017-11-28T22:33:09.686Z,14.87
2017-11-28T22:35:38.779Z,16.57
2017-11-28T22:38:06.500Z,17.73
2017-11-28T22:40:34.066Z,17.10
2017-11-28T22:43:02.167Z,19.07
2017-11-28T22:45:29.820Z,15.50
2017-11-28T22:47:58.860Z,14.47
2017-11-28T22:50:27.169Z,16.27
2017-11-28T22:52:54.960Z,16.20
2017-11-28T22:55:22.577Z,18.40
2017-11-28T22:57:50.189Z,18.10
2017-11-28T23:00:17.747Z,16.37
2017-11-28T23:02:46.122Z,14.43
2017-11-28T23:05:14.020Z,19.13
2017-11-28T23:07:43.059Z,16.43
2017-11-28T23:10:10.610Z,18.77
2017-11-28T23:12:38.248Z,20.23
2017-11-28T23:15:06.644Z,14.83
2017-11-28T23:17:34.314Z,13.60
2017-11-28T23:20:01.927Z,16.53
2017-11-28T23:22:30.317Z,16.27
2017-11-28T23:24:57.897Z,15.03
2017-11-28T23:27:25.514Z,18.97
2017-11-28T23:29:53.112Z,15.07
2017-11-28T23:32:21.242Z,16.03
2017-11-28T23:34:48.810Z,14.63
2017-11-28T23:37:16.622Z,15.27
2017-11-28T23:39:44.617Z,14.03
2017-11-28T23:42:12.578Z,19.40
2017-11-28T23:44:40.112Z,14.80
2017-11-28T23:47:07.796Z,16.90
2017-11-28T23:49:35.410Z,16.57
2017-11-28T23:52:02.988Z,16.10
2017-11-28T23:54:30.556Z,18.93
2017-11-28T23:56:59.790Z,16.40
2017-11-28T23:59:28.553Z,15.27
